Time;durP1;ratioP1;P1;durP2;ratioP2;P2;SDS_P1;SDS_P2;PMS_P1;PMS_P2;Temp;Humidity;BMP_temperature;BMP_pressure;BME280_temperature;BME280_humidity;BME280_pressure;Samples;Min_cycle;Max_cycle;Signal;HPM_P1;HPM_P2
2022/03/26 00:00:22;;;;;;;37.10;27.02;;;;;;;3.95;61.41;101765.94;5004495;28;20030;-80
2022/03/26 00:02:48;;;;;;;35.55;26.23;;;;;;;4.08;61.48;101796.00;5005621;28;20115;-78
2022/03/26 00:08:35;;;;;;;36.25;28.52;;;;;;;4.00;62.94;101806.03;5006348;28;20044;-79
2022/03/26 00:11:00;;;;;;;41.55;28.98;;;;;;;3.53;63.44;101763.00;5005330;28;20041;-78
2022/03/26 00:13:26;;;;;;;40.35;27.88;;;;;;;3.93;63.00;101796.16;5006601;28;20045;-81
2022/03/26 00:16:01;;;;;;;43.88;26.95;;;;;;;3.59;63.64;101762.44;5007579;28;20378;-78
2022/03/26 00:18:27;;;;;;;45.28;29.75;;;;;;;3.88;63.80;101795.03;5006029;28;21089;-80
2022/03/26 00:20:53;;;;;;;46.67;29.40;;;;;;;3.88;62.70;101775.97;5010074;28;20434;-80
2022/03/26 00:23:18;;;;;;;32.05;26.25;;;;;;;3.97;63.61;101797.19;5004849;28;20104;-80
2022/03/26 00:25:44;;;;;;;34.13;26.52;;;;;;;3.82;64.09;101784.34;5008070;28;20501;-80
2022/03/26 00:28:10;;;;;;;39.78;25.77;;;;;;;3.96;63.36;101792.81;4993065;28;20080;-81
2022/03/26 00:30:35;;;;;;;46.30;28.20;;;;;;;3.78;64.03;101800.59;5008105;28;20390;-81
2022/03/26 00:33:01;;;;;;;34.97;26.02;;;;;;;3.76;63.48;101758.97;5014125;28;20046;-81
2022/03/26 00:35:27;;;;;;;34.28;25.88;;;;;;;3.90;63.25;101796.00;5006961;28;20050;-79
2022/03/26 00:37:53;;;;;;;36.42;26.38;;;;;;;3.43;63.89;101752.09;5010028;28;20564;-81
2022/03/26 00:40:30;;;;;;;39.58;27.52;;;;;;;3.58;64.69;101784.00;5010524;28;20097;-82
2022/03/26 00:43:02;;;;;;;38.85;29.08;;;;;;;3.70;64.55;101796.69;5014465;28;20062;-82
2022/03/26 00:45:29;;;;;;;38.25;25.67;;;;;;;3.59;64.44;101752.06;5012511;28;20038;-81
2022/03/26 00:47:59;;;;;;;31.13;25.52;;;;;;;3.73;64.00;101763.13;5007311;28;20054;-82
2022/03/26 00:50:25;;;;;;;41.45;26.45;;;;;;;3.76;64.29;101774.53;5013336;28;20041;-81
2022/03/26 00:52:50;;;;;;;32.40;24.52;;;;;;;3.57;64.11;101757.16;5007665;28;20091;-78
2022/03/26 00:55:22;;;;;;;39.90;26.45;;;;;;;3.41;64.94;101759.78;5003344;28;20045;-82
2022/03/26 00:57:49;;;;;;;34.72;27.33;;;;;;;3.63;64.39;101766.06;5009687;28;21274;-78
2022/03/26 01:00:15;;;;;;;37.63;26.00;;;;;;;3.74;64.65;101789.13;5012669;28;20041;-79
2022/03/26 01:02:41;;;;;;;32.47;24.30;;;;;;;3.51;64.94;101741.31;5007873;28;20053;-78
2022/03/26 01:05:07;;;;;;;34.08;25.60;;;;;;;3.72;64.58;101762.25;5005244;28;20042;-78
2022/03/26 01:07:32;;;;;;;29.08;23.48;;;;;;;3.48;64.82;101750.63;5002210;28;20045;-78
2022/03/26 01:09:58;;;;;;;35.97;26.98;;;;;;;3.60;65.17;101766.81;5004030;28;20426;-78
2022/03/26 01:12:25;;;;;;;27.63;22.77;;;;;;;3.59;65.25;101754.66;4989820;28;20034;-79
2022/03/26 01:14:53;;;;;;;34.15;26.50;;;;;;;3.98;64.50;101807.66;5010166;28;20383;-79
2022/03/26 01:17:19;;;;;;;30.58;22.45;;;;;;;3.91;64.94;101797.78;5004037;28;20045;-79
2022/03/26 01:19:48;;;;;;;28.13;23.35;;;;;;;3.98;64.71;101799.88;5007248;28;20053;-81
2022/03/26 01:22:15;;;;;;;33.30;23.42;;;;;;;3.78;64.76;101795.41;5007775;28;20069;-80
2022/03/26 01:24:41;;;;;;;34.05;22.25;;;;;;;3.98;64.29;101802.47;5006561;28;20033;-79
2022/03/26 01:27:07;;;;;;;30.30;22.75;;;;;;;3.82;64.44;101768.78;4989194;28;20376;-80
2022/03/26 01:30:09;;;;;;;28.92;22.38;;;;;;;3.85;64.70;101768.03;5006899;28;20763;-80
2022/03/26 01:32:34;;;;;;;32.08;22.30;;;;;;;3.75;64.62;101764.97;5004657;28;20121;-79
2022/03/26 01:35:00;;;;;;;30.50;22.50;;;;;;;3.98;64.64;101796.34;5003812;28;20096;-79
2022/03/26 01:37:26;;;;;;;30.50;21.33;;;;;;;3.92;64.90;101786.56;5006248;28;20046;-76
2022/03/26 01:39:52;;;;;;;29.50;21.52;;;;;;;4.00;65.19;101806.03;5008422;28;20172;-79
2022/03/26 01:42:20;;;;;;;35.42;21.63;;;;;;;3.95;64.20;101758.16;5005797;28;20038;-78
2022/03/26 01:44:46;;;;;;;30.80;22.17;;;;;;;3.99;64.29;101767.88;5009608;28;20058;-79
2022/03/26 01:47:12;;;;;;;26.38;20.40;;;;;;;4.19;64.04;101802.63;5003050;28;20164;-79
2022/03/26 01:49:38;;;;;;;26.95;19.52;;;;;;;4.27;64.25;101796.91;5003162;28;20184;-79
2022/03/26 01:52:04;;;;;;;28.70;21.83;;;;;;;3.98;64.65;101765.19;5004240;28;20045;-80
2022/03/26 01:54:32;;;;;;;27.08;18.90;;;;;;;4.05;64.64;101779.38;5007017;28;20021;-80
2022/03/26 01:56:57;;;;;;;27.30;19.40;;;;;;;4.10;64.94;101786.59;5005438;28;20041;-81
2022/03/26 01:59:24;;;;;;;25.92;18.08;;;;;;;4.13;64.31;101771.16;5005226;28;20129;-81
2022/03/26 02:01:50;;;;;;;25.27;16.90;;;;;;;4.35;64.13;101764.38;5007359;28;20046;-81
2022/03/26 02:04:15;;;;;;;27.02;17.67;;;;;;;4.51;63.53;101790.25;5007731;28;20038;-81
2022/03/26 02:06:41;;;;;;;23.08;17.05;;;;;;;4.31;63.41;101760.75;5010143;28;20083;-80
2022/03/26 02:09:11;;;;;;;25.25;17.98;;;;;;;4.64;63.61;101799.53;5009766;28;20037;-81
2022/03/26 02:11:39;;;;;;;21.35;17.85;;;;;;;4.40;63.52;101756.00;5008151;28;20042;-81
2022/03/26 02:14:55;;;;;;;25.00;17.42;;;;;;;4.60;63.60;101795.88;5011924;28;20073;-79
2022/03/26 02:17:22;;;;;;;25.40;18.23;;;;;;;4.55;63.31;101789.59;5004890;28;20098;-81
2022/03/26 02:19:58;;;;;;;22.08;16.48;;;;;;;4.22;63.77;101776.78;5004603;28;20038;-80
2022/03/26 02:22:27;;;;;;;23.83;15.80;;;;;;;4.50;63.38;101803.19;5007770;28;20044;-76
2022/03/26 02:24:53;;;;;;;21.40;17.13;;;;;;;4.69;63.29;101803.22;5008104;28;20070;-79
2022/03/26 02:27:19;;;;;;;24.52;17.40;;;;;;;4.65;63.07;101801.28;5004352;28;20014;-81
2022/03/26 02:29:45;;;;;;;24.02;16.10;;;;;;;4.75;62.56;101792.22;5009960;28;20058;-81
2022/03/26 02:32:10;;;;;;;24.23;17.50;;;;;;;4.52;62.74;101757.34;5003235;28;20078;-76
2022/03/26 02:34:38;;;;;;;20.15;15.73;;;;;;;4.68;62.72;101793.63;5003324;28;20053;-77
2022/03/26 02:37:04;;;;;;;19.75;16.13;;;;;;;4.74;62.67;101791.31;5007495;28;20029;-77
2022/03/26 02:40:10;;;;;;;24.08;17.52;;;;;;;4.73;62.42;101783.44;5008254;28;20026;-79
2022/03/26 02:42:40;;;;;;;28.88;16.52;;;;;;;4.64;62.74;101776.13;5005599;28;20049;-80
2022/03/26 02:45:08;;;;;;;27.73;14.75;;;;;;;4.89;62.52;101788.53;4988269;28;20038;-81
2022/03/26 02:47:33;;;;;;;25.45;15.15;;;;;;;4.95;62.09;101790.53;5005524;28;20044;-82
2022/03/26 02:49:59;;;;;;;20.42;15.30;;;;;;;4.74;62.51;101780.03;5001286;28;20390;-80
2022/03/26 02:52:26;;;;;;;22.13;14.50;;;;;;;4.85;62.11;101760.63;5001766;28;22263;-79
2022/03/26 02:54:52;;;;;;;25.42;15.85;;;;;;;4.85;62.23;101760.63;5008734;28;20531;-80
2022/03/26 02:57:18;;;;;;;18.65;14.07;;;;;;;4.90;62.13;101786.84;5003440;28;20037;-80
2022/03/26 02:59:44;;;;;;;19.35;15.27;;;;;;;4.63;62.00;101754.41;5004521;28;20121;-79
2022/03/26 03:02:09;;;;;;;22.33;15.30;;;;;;;5.07;61.85;101791.06;5004014;28;20129;-81
2022/03/26 03:04:35;;;;;;;22.92;15.10;;;;;;;4.58;62.33;101762.84;5002249;28;20066;-79
2022/03/26 03:07:02;;;;;;;22.02;15.18;;;;;;;4.65;61.94;101760.59;4986732;28;20524;-80
2022/03/26 03:09:29;;;;;;;20.42;15.52;;;;;;;4.85;61.84;101792.72;5007893;28;20394;-80
2022/03/26 03:11:54;;;;;;;20.17;14.63;;;;;;;4.84;61.58;101792.63;5007790;28;20041;-80
2022/03/26 03:14:20;;;;;;;19.75;15.18;;;;;;;4.71;61.71;101740.91;5006987;28;20056;-81
2022/03/26 03:16:46;;;;;;;22.33;15.90;;;;;;;4.37;62.15;101748.03;5006793;28;20038;-80
2022/03/26 03:19:12;;;;;;;24.27;16.08;;;;;;;4.67;62.46;101793.59;5012676;28;20488;-80
2022/03/26 03:21:37;;;;;;;24.02;13.98;;;;;;;4.68;62.24;101767.63;5009247;28;20030;-80
2022/03/26 03:24:04;;;;;;;22.38;16.20;;;;;;;4.63;61.55;101759.63;5008365;28;20458;-79
2022/03/26 03:26:30;;;;;;;24.73;15.73;;;;;;;4.52;61.82;101755.66;5010962;28;20038;-80
2022/03/26 03:28:57;;;;;;;20.27;15.68;;;;;;;4.51;62.03;101774.66;5009854;28;20041;-79
2022/03/26 03:31:23;;;;;;;21.17;15.85;;;;;;;4.41;62.17;101786.34;5006960;28;20037;-81
2022/03/26 03:33:50;;;;;;;22.73;16.27;;;;;;;4.49;62.24;101785.81;5004812;28;20021;-79
2022/03/26 03:36:17;;;;;;;22.67;16.42;;;;;;;3.95;63.03;101745.16;5015805;28;20084;-80
2022/03/26 03:39:07;;;;;;;24.40;15.65;;;;;;;4.42;62.67;101777.75;5007969;28;20046;-82
2022/03/26 03:41:34;;;;;;;26.30;16.20;;;;;;;4.47;62.18;101790.91;5009640;28;20038;-81
2022/03/26 03:44:10;;;;;;;22.77;16.23;;;;;;;4.22;62.73;101745.59;5009446;28;20046;-81
2022/03/26 03:46:35;;;;;;;23.48;17.23;;;;;;;4.49;62.44;101794.50;5006802;28;20041;-81
2022/03/26 03:49:02;;;;;;;22.40;17.45;;;;;;;4.11;62.77;101759.78;4993205;28;20029;-82
2022/03/26 03:51:35;;;;;;;24.17;17.10;;;;;;;4.08;62.96;101757.06;5011856;28;20058;-79
2022/03/26 03:54:00;;;;;;;20.30;17.00;;;;;;;3.97;63.10;101766.91;5008146;28;20046;-79
2022/03/26 03:56:26;;;;;;;25.42;16.25;;;;;;;4.23;62.53;101762.97;5010597;28;20381;-80
2022/03/26 03:58:52;;;;;;;23.58;16.20;;;;;;;4.20;62.40;101762.81;5008235;28;20077;-79
2022/03/26 04:01:18;;;;;;;22.02;15.90;;;;;;;4.15;62.26;101760.84;5004575;28;20486;-79
2022/03/26 04:03:48;;;;;;;21.27;15.48;;;;;;;4.35;62.26;101793.84;5007255;28;20036;-80
2022/03/26 04:06:14;;;;;;;20.95;15.77;;;;;;;4.24;62.60;101797.66;5011426;28;20038;-79
2022/03/26 04:08:41;;;;;;;19.77;16.60;;;;;;;4.02;64.30;101795.69;5005707;28;20485;-77
2022/03/26 04:11:07;;;;;;;24.00;16.00;;;;;;;4.15;62.53;101774.72;5012216;28;20052;-79
2022/03/26 04:13:33;;;;;;;25.08;16.75;;;;;;;4.37;62.43;101797.41;5007639;28;20042;-79
2022/03/26 04:16:00;;;;;;;22.85;16.77;;;;;;;3.96;62.52;101753.88;5004158;28;20037;-78
2022/03/26 04:18:26;;;;;;;21.58;16.02;;;;;;;4.16;62.36;101797.25;5006473;28;20064;-77
2022/03/26 04:20:53;;;;;;;27.23;17.10;;;;;;;4.18;62.73;101773.97;5008434;28;20044;-79
2022/03/26 04:23:19;;;;;;;20.17;15.68;;;;;;;3.96;62.78;101770.34;4989884;28;20073;-80
2022/03/26 04:25:45;;;;;;;30.27;16.63;;;;;;;4.28;62.26;101807.34;5003347;28;20105;-78
2022/03/26 04:28:11;;;;;;;23.55;17.35;;;;;;;3.99;62.52;101765.28;5011593;28;20045;-79
2022/03/26 04:30:37;;;;;;;22.50;17.85;;;;;;;4.11;62.03;101764.97;5005923;28;20049;-76
2022/03/26 04:33:03;;;;;;;25.48;16.92;;;;;;;4.15;61.93;101764.31;5006096;28;20073;-80
2022/03/26 04:35:29;;;;;;;20.08;16.63;;;;;;;4.19;62.33;101793.91;5008813;28;20034;-79
2022/03/26 04:37:56;;;;;;;24.17;17.08;;;;;;;4.15;62.43;101811.06;5012162;28;20108;-79
2022/03/26 04:40:25;;;;;;;21.45;16.67;;;;;;;4.17;62.99;101809.44;5006613;28;20045;-77
2022/03/26 04:42:51;;;;;;;27.88;17.35;;;;;;;4.10;62.33;101765.81;4991969;28;20038;-79
2022/03/26 04:45:16;;;;;;;25.50;17.80;;;;;;;4.15;62.12;101766.91;5012322;28;20056;-80
2022/03/26 04:47:42;;;;;;;23.58;18.02;;;;;;;4.19;62.19;101775.72;5006702;28;20350;-80
2022/03/26 04:50:09;;;;;;;24.20;18.23;;;;;;;4.14;62.34;101772.03;5004521;28;20054;-80
2022/03/26 04:52:35;;;;;;;29.35;18.08;;;;;;;4.12;62.10;101759.00;5005149;28;20057;-80
2022/03/26 04:55:17;;;;;;;23.23;17.45;;;;;;;4.23;62.07;101762.06;5005664;28;20795;-81
2022/03/26 04:57:45;;;;;;;24.98;17.77;;;;;;;4.45;61.91;101808.19;5008230;28;20486;-80
2022/03/26 05:00:13;;;;;;;25.98;19.33;;;;;;;4.44;61.78;101806.38;5010455;28;20037;-81
2022/03/26 05:02:41;;;;;;;22.60;16.70;;;;;;;4.45;61.25;101782.19;5005292;28;20062;-80
2022/03/26 05:05:09;;;;;;;25.35;18.00;;;;;;;4.41;61.12;101767.25;4991098;28;20054;-81
2022/03/26 05:07:48;;;;;;;27.30;18.60;;;;;;;4.39;61.47;101755.91;5008835;28;20519;-80
2022/03/26 05:10:16;;;;;;;21.40;16.63;;;;;;;4.79;60.83;101787.22;5003091;28;20038;-82
2022/03/26 05:12:43;;;;;;;22.48;17.48;;;;;;;4.50;61.21;101780.69;5008887;28;20056;-81
2022/03/26 05:15:10;;;;;;;27.42;18.98;;;;;;;4.74;60.60;101796.53;5009192;28;20034;-81
2022/03/26 05:17:37;;;;;;;27.35;19.27;;;;;;;4.76;60.19;101781.88;5001078;28;20046;-78
2022/03/26 05:20:04;;;;;;;22.73;17.77;;;;;;;5.01;59.46;101801.19;5007924;28;20050;-81
2022/03/26 05:22:30;;;;;;;21.23;17.77;;;;;;;5.04;59.38;101780.53;5012912;28;20072;-83
2022/03/26 05:24:56;;;;;;;23.23;17.73;;;;;;;4.85;59.73;101758.03;5007724;28;20041;-82
2022/03/26 05:27:22;;;;;;;25.13;18.40;;;;;;;5.29;58.99;101796.41;5009339;28;20017;-79
2022/03/26 05:30:12;;;;;;;22.08;18.80;;;;;;;5.42;58.70;101807.34;5009734;28;20195;-82
2022/03/26 05:32:38;;;;;;;29.27;17.90;;;;;;;5.43;58.22;101799.63;5007297;28;20382;-78
2022/03/26 05:35:11;;;;;;;31.25;20.55;;;;;;;5.59;57.76;101789.84;5005302;28;20062;-80
2022/03/26 05:37:41;;;;;;;28.55;19.45;;;;;;;5.80;57.14;101811.56;5006729;28;20042;-79
2022/03/26 05:40:08;;;;;;;30.88;18.30;;;;;;;6.20;56.65;101817.56;5008049;28;20118;-80
2022/03/26 05:42:35;;;;;;;25.15;17.20;;;;;;;6.53;54.80;101797.16;5007816;28;20076;-80
2022/03/26 05:45:03;;;;;;;33.00;17.92;;;;;;;6.70;54.04;101795.22;5008020;28;20112;-81
2022/03/26 05:47:30;;;;;;;27.00;19.35;;;;;;;7.40;52.33;101803.03;5001786;28;20069;-80
2022/03/26 05:49:56;;;;;;;28.67;18.73;;;;;;;7.67;51.93;101809.16;5005545;28;20040;-80
2022/03/26 05:52:21;;;;;;;25.52;18.30;;;;;;;7.42;51.47;101781.28;5010954;28;20113;-80
2022/03/26 05:54:47;;;;;;;28.73;19.45;;;;;;;7.74;51.39;101817.25;5003176;28;20058;-74
2022/03/26 05:57:14;;;;;;;28.02;18.42;;;;;;;8.35;49.89;101821.00;5004244;28;20033;-80
2022/03/26 05:59:40;;;;;;;24.80;18.55;;;;;;;8.70;49.48;101800.31;5006510;28;20394;-82
2022/03/26 06:02:06;;;;;;;23.65;17.73;;;;;;;8.84;48.48;101785.00;5005410;28;20049;-80
2022/03/26 06:04:31;;;;;;;25.02;18.38;;;;;;;8.92;47.71;101787.84;5007933;28;20038;-81
2022/03/26 06:06:59;;;;;;;28.75;17.00;;;;;;;8.84;48.46;101769.31;4987125;28;20040;-81
2022/03/26 06:09:25;;;;;;;23.20;17.55;;;;;;;9.43;47.21;101814.59;5007455;28;20022;-80
2022/03/26 06:11:50;;;;;;;17.92;14.75;;;;;;;8.92;47.21;101814.03;5003231;28;20053;-79
2022/03/26 06:14:18;;;;;;;24.73;16.45;;;;;;;8.63;47.58;101777.41;5003994;28;20040;-78
2022/03/26 06:16:45;;;;;;;56.60;31.23;;;;;;;9.02;47.92;101792.53;5009355;28;20042;-80
2022/03/26 06:19:12;;;;;;;27.20;15.57;;;;;;;8.32;48.28;101794.75;5004292;28;20038;-79
2022/03/26 06:21:38;;;;;;;24.38;17.73;;;;;;;8.25;49.85;101777.97;5005833;28;20076;-81
2022/03/26 06:24:21;;;;;;;18.00;15.18;;;;;;;8.12;49.02;101786.25;5011573;28;20046;-81
2022/03/26 06:26:48;;;;;;;24.17;18.10;;;;;;;8.87;48.35;101817.41;5005424;28;20069;-80
2022/03/26 06:29:14;;;;;;;26.90;16.35;;;;;;;8.69;49.16;101823.81;5004178;28;20046;-81
2022/03/26 06:31:41;;;;;;;18.13;15.38;;;;;;;8.63;48.30;101816.66;5007225;28;20041;-81
2022/03/26 06:34:34;;;;;;;22.83;16.08;;;;;;;8.64;48.46;101801.03;5005710;28;20056;-81
2022/03/26 06:37:13;;;;;;;20.85;15.25;;;;;;;8.83;48.72;101827.75;5008550;28;20097;-81
2022/03/26 06:39:39;;;;;;;19.65;14.80;;;;;;;8.43;49.26;101782.06;5008710;28;20109;-73
2022/03/26 06:42:05;;;;;;;19.52;14.20;;;;;;;8.67;49.18;101821.16;5006442;28;20101;-72
2022/03/26 06:44:31;;;;;;;21.08;16.40;;;;;;;8.05;49.59;101779.06;5009456;28;20559;-73
2022/03/26 06:46:57;;;;;;;24.42;15.90;;;;;;;8.30;49.21;101826.94;5012873;28;20133;-73
2022/03/26 06:49:24;;;;;;;18.05;13.77;;;;;;;8.59;48.62;101834.00;5011621;28;20136;-74
2022/03/26 06:52:09;;;;;;;19.27;14.75;;;;;;;8.33;48.85;101793.91;5010914;28;20033;-73
2022/03/26 06:55:21;;;;;;;26.60;16.42;;;;;;;8.16;48.96;101801.22;5010849;28;20121;-73
2022/03/26 06:57:56;;;;;;;29.55;15.30;;;;;;;8.43;48.96;101834.38;5012931;28;20045;-73
2022/03/26 07:00:22;;;;;;;23.40;15.32;;;;;;;8.44;48.55;101831.78;5018671;28;20085;-73
2022/03/26 07:02:51;;;;;;;24.08;16.60;;;;;;;8.54;48.73;101826.84;5010886;28;20349;-74
2022/03/26 07:05:56;;;;;;;19.52;13.80;;;;;;;8.55;47.24;101802.47;5014466;28;20042;-74
2022/03/26 07:08:21;;;;;;;20.77;15.48;;;;;;;8.50;47.90;101799.72;5013364;28;20036;-74
2022/03/26 07:10:48;;;;;;;22.33;13.85;;;;;;;8.60;47.26;101830.53;5012826;28;20050;-74
2022/03/26 07:13:14;;;;;;;20.23;13.20;;;;;;;8.66;46.69;101820.28;5026660;28;20034;-74
2022/03/26 07:15:41;;;;;;;23.08;14.23;;;;;;;8.80;46.67;101815.47;5013387;28;20021;-74
2022/03/26 07:18:09;;;;;;;16.38;14.10;;;;;;;8.84;46.72;101798.09;5008230;28;20358;-75
2022/03/26 07:20:35;;;;;;;21.30;14.25;;;;;;;9.23;45.94;101842.88;5009078;28;20389;-74
2022/03/26 07:23:01;;;;;;;18.05;13.52;;;;;;;9.28;45.96;101837.78;5009093;28;20108;-73
2022/03/26 07:25:27;;;;;;;22.40;14.25;;;;;;;8.94;45.35;101801.88;5017024;28;20034;-73
2022/03/26 07:27:54;;;;;;;17.67;13.85;;;;;;;9.05;45.46;101806.56;4997977;28;20034;-73
2022/03/26 07:30:19;;;;;;;17.35;12.23;;;;;;;9.23;45.86;101826.28;5009602;28;20017;-73
2022/03/26 07:32:45;;;;;;;22.75;15.15;;;;;;;9.25;45.57;101811.50;4993397;28;20049;-73
2022/03/26 07:35:11;;;;;;;23.27;14.55;;;;;;;9.34;44.93;101800.38;5013611;28;20042;-74
2022/03/26 07:37:36;;;;;;;19.90;14.02;;;;;;;9.63;44.55;101827.38;5009580;28;20041;-74
2022/03/26 07:40:03;;;;;;;20.38;15.30;;;;;;;9.63;44.85;101827.38;5008970;28;20026;-74
2022/03/26 07:42:29;;;;;;;17.30;12.98;;;;;;;9.62;44.09;101810.78;5015163;28;20029;-75
2022/03/26 07:44:55;;;;;;;17.58;11.68;;;;;;;9.79;43.86;101824.31;5007031;28;20058;-74
2022/03/26 07:47:20;;;;;;;18.88;13.15;;;;;;;9.55;43.31;101784.34;5008091;28;20069;-74
2022/03/26 07:50:04;;;;;;;22.45;11.82;;;;;;;9.72;43.01;101804.03;5015177;28;20135;-74
2022/03/26 07:52:29;;;;;;;19.80;11.80;;;;;;;9.74;43.16;101818.06;5009139;28;20200;-74
2022/03/26 07:54:58;;;;;;;14.02;11.57;;;;;;;9.73;43.62;101803.16;5007640;28;20148;-73
2022/03/26 07:57:26;;;;;;;17.75;12.35;;;;;;;10.02;43.43;101797.78;5011401;28;20026;-74
2022/03/26 08:00:06;;;;;;;19.70;11.80;;;;;;;10.33;42.13;101823.94;4989931;28;20041;-73
2022/03/26 08:02:33;;;;;;;21.23;11.20;;;;;;;10.19;41.63;101814.81;5001960;28;20037;-73
2022/03/26 08:04:59;;;;;;;16.80;12.02;;;;;;;10.38;41.12;101825.78;5010426;28;20042;-74
2022/03/26 08:07:28;;;;;;;18.42;11.80;;;;;;;10.12;41.07;101797.16;5008920;28;20064;-73
2022/03/26 08:09:53;;;;;;;21.90;12.73;;;;;;;10.20;41.26;101794.72;5014655;28;20549;-73
2022/03/26 08:12:19;;;;;;;18.08;12.20;;;;;;;10.40;40.98;101801.34;5007011;28;20470;-75
2022/03/26 08:14:45;;;;;;;16.10;11.63;;;;;;;10.70;40.93;101805.50;5004147;28;20026;-74
2022/03/26 08:17:10;;;;;;;15.98;11.23;;;;;;;10.47;40.23;101782.28;5008134;28;20041;-74
2022/03/26 08:19:37;;;;;;;16.90;11.20;;;;;;;10.59;40.46;101779.03;5007541;28;20474;-74
2022/03/26 08:22:04;;;;;;;15.07;10.75;;;;;;;10.48;40.75;101775.28;5006577;28;20032;-73
2022/03/26 08:24:31;;;;;;;18.55;10.80;;;;;;;10.01;41.19;101780.28;5005950;28;20033;-74
2022/03/26 08:26:57;;;;;;;19.48;12.20;;;;;;;10.22;41.01;101775.53;5001808;28;20057;-75
2022/03/26 08:29:22;;;;;;;16.17;10.90;;;;;;;10.69;40.85;101802.00;5003175;28;20042;-73
2022/03/26 08:31:48;;;;;;;13.75;10.55;;;;;;;10.93;40.55;101804.28;5001889;28;21926;-73
2022/03/26 08:34:14;;;;;;;17.20;11.15;;;;;;;10.93;40.24;101780.66;5003881;28;20510;-73
2022/03/26 08:36:40;;;;;;;15.63;9.68;;;;;;;11.14;39.68;101805.56;4999631;28;20026;-74
2022/03/26 08:39:07;;;;;;;16.63;10.85;;;;;;;10.97;39.42;101792.09;5003863;28;20406;-78
2022/03/26 08:41:34;;;;;;;15.45;10.05;;;;;;;11.05;38.94;101773.84;5001851;28;20513;-73
2022/03/26 08:44:01;;;;;;;16.23;11.57;;;;;;;11.29;39.27;101787.47;5001546;28;20579;-75
2022/03/26 08:46:28;;;;;;;13.95;10.00;;;;;;;11.31;38.94;101750.72;5002830;28;20041;-75
2022/03/26 08:48:53;;;;;;;12.02;9.13;;;;;;;11.72;39.01;101800.53;4993173;28;20405;-74
2022/03/26 08:51:20;;;;;;;17.52;10.40;;;;;;;11.27;37.53;101757.66;5034106;28;22978;-74
2022/03/26 08:53:46;;;;;;;18.30;9.02;;;;;;;11.37;38.14;101753.44;5008575;28;20053;-75
2022/03/26 08:56:12;;;;;;;19.65;9.32;;;;;;;11.43;38.20;101745.69;5001216;28;20042;-74
2022/03/26 08:58:38;;;;;;;14.57;9.80;;;;;;;11.43;38.17;101769.34;5002042;28;20045;-74
2022/03/26 09:01:07;;;;;;;19.17;9.70;;;;;;;11.39;37.70;101747.38;5001755;28;20476;-74
2022/03/26 09:03:37;;;;;;;15.50;9.65;;;;;;;11.19;37.25;101740.84;5003459;28;20405;-74
2022/03/26 09:06:06;;;;;;;16.85;11.60;;;;;;;11.26;37.96;101736.59;5001160;28;20045;-74
2022/03/26 09:08:36;;;;;;;16.92;10.02;;;;;;;11.51;37.35;101764.22;5010475;28;20501;-75
2022/03/26 09:11:04;;;;;;;20.90;10.20;;;;;;;11.51;37.73;101745.81;4987166;28;20042;-73
2022/03/26 09:13:32;;;;;;;18.95;9.90;;;;;;;11.49;37.46;101755.41;4985807;28;20355;-73
2022/03/26 09:15:59;;;;;;;12.85;9.25;;;;;;;11.38;38.22;101744.72;5003531;28;20041;-74
2022/03/26 09:18:25;;;;;;;11.10;9.35;;;;;;;11.66;37.99;101780.28;5004691;28;20041;-74
2022/03/26 09:20:51;;;;;;;14.27;10.05;;;;;;;11.64;37.63;101723.28;5003256;28;20200;-74
2022/03/26 09:23:17;;;;;;;15.65;9.13;;;;;;;12.30;37.76;101767.31;5004178;28;20034;-74
2022/03/26 09:25:43;;;;;;;15.88;10.25;;;;;;;12.09;37.12;101764.34;5006800;28;20041;-74
2022/03/26 09:28:09;;;;;;;15.35;10.27;;;;;;;12.03;36.31;101763.41;5007548;28;20122;-73
2022/03/26 09:30:36;;;;;;;15.10;10.27;;;;;;;12.15;36.41;101761.78;5005365;28;20080;-74
2022/03/26 09:33:02;;;;;;;15.63;9.55;;;;;;;12.22;35.97;101742.59;5003514;28;20034;-78
2022/03/26 09:35:28;;;;;;;12.52;9.48;;;;;;;12.02;35.99;101732.69;5004234;28;20041;-75
2022/03/26 09:37:53;;;;;;;17.35;9.52;;;;;;;12.33;36.29;101717.31;5003338;28;20386;-75
2022/03/26 09:40:22;;;;;;;17.15;9.32;;;;;;;12.45;36.50;101742.94;5002082;28;20034;-74
2022/03/26 09:42:49;;;;;;;11.73;8.45;;;;;;;12.35;36.04;101702.44;5001764;28;20036;-76
2022/03/26 09:45:16;;;;;;;11.25;8.25;;;;;;;12.72;35.15;101731.88;4992078;28;20049;-81
2022/03/26 09:51:14;;;;;;;24.95;9.63;;;;;;;13.07;35.61;101739.31;5014088;28;20048;-81
2022/03/26 09:53:40;;;;;;;19.90;8.32;;;;;;;12.98;34.16;101739.22;5003809;28;20046;-84
2022/03/26 09:56:07;;;;;;;17.92;9.18;;;;;;;13.17;33.89;101706.91;5002604;28;20029;-74
2022/03/26 09:58:34;;;;;;;16.30;9.18;;;;;;;13.30;34.10;101722.03;5003384;28;23274;-81
2022/03/26 10:01:00;;;;;;;11.27;7.88;;;;;;;12.86;34.37;101729.44;5001947;28;20305;-83
2022/03/26 10:03:26;;;;;;;12.10;8.30;;;;;;;12.98;34.65;101737.47;5003309;28;20128;-80
2022/03/26 10:06:02;;;;;;;17.63;8.82;;;;;;;13.42;34.25;101728.31;5003172;28;20042;-80
2022/03/26 10:08:28;;;;;;;14.48;8.68;;;;;;;13.57;33.93;101714.38;5003167;28;20394;-80
2022/03/26 10:10:55;;;;;;;13.70;8.90;;;;;;;13.55;34.82;101702.91;4999859;28;20034;-76
2022/03/26 10:13:48;;;;;;;11.60;8.85;;;;;;;13.68;34.59;101708.31;5002176;28;20113;-82
2022/03/26 10:16:17;;;;;;;15.33;8.90;;;;;;;13.42;33.41;101687.00;5002548;28;20092;-75
2022/03/26 10:18:48;;;;;;;14.23;9.82;;;;;;;13.47;33.19;101703.72;5000625;28;20026;-82
2022/03/26 10:21:16;;;;;;;11.43;8.27;;;;;;;13.28;33.02;101667.53;5000112;28;20042;-80
2022/03/26 10:23:44;;;;;;;15.13;8.15;;;;;;;13.78;33.16;101687.28;5001122;28;20087;-79
2022/03/26 10:26:13;;;;;;;13.02;8.52;;;;;;;13.47;33.28;101679.13;5003806;28;20045;-81
2022/03/26 10:28:52;;;;;;;12.95;8.55;;;;;;;13.34;32.97;101651.75;5005107;28;20065;-87
2022/03/26 10:34:12;;;;;;;13.38;8.10;;;;;;;13.71;31.94;101655.56;5006913;28;20048;-82
2022/03/26 10:36:43;;;;;;;19.08;7.72;;;;;;;14.26;31.84;101641.81;5008589;28;20496;-80
2022/03/26 10:39:30;;;;;;;13.02;8.93;;;;;;;14.54;31.30;101656.06;5005547;28;20085;-80
2022/03/26 10:45:55;;;;;;;11.25;8.70;;;;;;;14.65;31.41;101642.00;5012645;28;20061;-83
2022/03/26 10:48:32;;;;;;;13.57;8.88;;;;;;;14.57;30.69;101627.00;5003821;28;20260;-80
2022/03/26 10:51:06;;;;;;;12.13;8.57;;;;;;;15.23;30.32;101628.00;5006733;28;20053;-83
2022/03/26 10:53:40;;;;;;;11.57;8.98;;;;;;;15.52;30.70;101612.09;5002146;28;20385;-76
2022/03/26 10:56:10;;;;;;;17.02;7.82;;;;;;;16.38;29.49;101628.66;5007524;28;20056;-78
2022/03/26 10:58:43;;;;;;;13.48;8.93;;;;;;;16.17;29.74;101626.13;5014788;28;20123;-78
2022/03/26 11:01:09;;;;;;;10.32;8.07;;;;;;;16.32;29.21;101603.97;5008880;28;20054;-76
2022/03/26 11:03:36;;;;;;;14.23;8.32;;;;;;;16.45;28.97;101621.59;5003767;28;20026;-79
2022/03/26 11:06:06;;;;;;;10.32;7.40;;;;;;;16.65;28.46;101613.53;4995571;28;20064;-79
2022/03/26 11:08:35;;;;;;;19.33;7.70;;;;;;;15.77;27.83;101586.53;4995781;28;20233;-80
2022/03/26 11:11:08;;;;;;;11.85;9.23;;;;;;;15.66;28.04;101588.28;5008189;28;20041;-76
2022/03/26 11:17:23;;;;;;;10.70;7.60;;;;;;;16.83;27.55;101575.44;5009206;28;20500;-80
2022/03/26 11:20:40;;;;;;;14.38;7.35;;;;;;;17.19;27.12;101581.38;5012576;28;20049;-79
2022/03/26 11:23:34;;;;;;;11.98;8.05;;;;;;;16.71;26.65;101602.00;5005318;28;20069;-78
2022/03/26 11:26:17;;;;;;;8.65;7.05;;;;;;;16.39;27.01;101596.00;5013423;28;20073;-78
2022/03/26 11:29:11;;;;;;;16.10;7.70;;;;;;;17.34;26.53;101557.34;5004270;28;20045;-78
2022/03/26 11:31:46;;;;;;;;;;;;;;;16.74;26.75;101547.22;5008262;28;20069;-82
2022/03/26 11:34:17;;;;;;;9.52;7.20;;;;;;;16.59;26.42;101573.81;5012905;28;19976;-81
2022/03/26 11:36:43;;;;;;;13.90;7.28;;;;;;;16.92;26.56;101550.63;5009148;28;20041;-80
2022/03/26 11:39:18;;;;;;;10.82;7.60;;;;;;;17.73;25.62;101569.31;5013928;28;20042;-81
2022/03/26 11:41:46;;;;;;;12.55;8.45;;;;;;;16.88;27.33;101534.78;5008438;28;20048;-82